createdAt,value
2019-03-01T00:00:23.903Z,97939.75
2019-03-01T00:01:33.633Z,97941.08
2019-03-01T00:02:41.899Z,97946.38
2019-03-01T00:04:00.172Z,97951.83
2019-03-01T00:05:49.284Z,97949.67
2019-03-01T00:07:37.172Z,97948.83
2019-03-01T00:09:17.719Z,97943.19
2019-03-01T00:10:33.447Z,97948.11
2019-03-01T00:11:57.487Z,97941.62
2019-03-01T00:13:53.991Z,97953.55
2019-03-01T00:15:32.823Z,97948.73
2019-03-01T00:17:15.379Z,97947.46
2019-03-01T00:19:07.249Z,97952.55
2019-03-01T00:20:49.296Z,97949.70
2019-03-01T00:22:39.448Z,97955.02
2019-03-01T00:24:00.622Z,97953.10
2019-03-01T00:25:24.696Z,97949.27
2019-03-01T00:27:01.881Z,97950.73
2019-03-01T00:28:20.050Z,97951.85
2019-03-01T00:29:53.452Z,97947.98
2019-03-01T00:31:11.975Z,97953.91
2019-03-01T00:32:33.119Z,97952.28
2019-03-01T00:33:57.622Z,97954.58
2019-03-01T00:35:38.797Z,97949.77
2019-03-01T00:37:36.500Z,97950.61
2019-03-01T00:39:14.619Z,97949.91
2019-03-01T00:40:38.678Z,97948.34
2019-03-01T00:42:10.494Z,97950.30
2019-03-01T00:43:31.920Z,97955.59
2019-03-01T00:44:43.187Z,97946.81
2019-03-01T00:45:51.198Z,97949.59
2019-03-01T00:46:59.676Z,97941.65
2019-03-01T00:48:07.603Z,97948.27
2019-03-01T00:49:15.713Z,97947.92
2019-03-01T00:50:23.965Z,97942.27
2019-03-01T00:51:32.243Z,97946.98
2019-03-01T00:52:40.447Z,97946.14
2019-03-01T00:53:48.657Z,97942.66
2019-03-01T00:54:56.687Z,97940.84
2019-03-01T00:56:06.174Z,97939.52
2019-03-01T00:57:14.474Z,97934.57
2019-03-01T00:58:22.681Z,97941.20
2019-03-01T00:59:30.872Z,97942.17
2019-03-01T01:00:46.205Z,97936.25
2019-03-01T01:01:54.444Z,97939.38
2019-03-01T01:03:03.452Z,97933.25
2019-03-01T01:04:11.765Z,97933.59
2019-03-01T01:05:19.961Z,97932.27
2019-03-01T01:06:28.159Z,97939.03
2019-03-01T01:07:36.473Z,97937.22
2019-03-01T01:08:44.674Z,97937.56
2019-03-01T01:12:50.021Z,97937.56
2019-03-01T01:13:58.296Z,97942.03
2019-03-01T01:15:07.848Z,97940.64
2019-03-01T01:16:15.927Z,97931.02
2019-03-01T01:17:24.072Z,97939.80
2019-03-01T01:18:32.427Z,97935.83
2019-03-01T01:19:40.415Z,97937.02
2019-03-01T01:20:48.637Z,97931.22
2019-03-01T01:21:58.059Z,97932.55
2019-03-01T01:23:06.353Z,97933.52
2019-03-01T01:24:14.653Z,97936.17
2019-03-01T01:25:22.851Z,97931.71
2019-03-01T01:26:30.949Z,97934.50
2019-03-01T01:27:38.949Z,97939.31
2019-03-01T01:28:47.000Z,97933.52
2019-03-01T01:29:55.162Z,97933.03
2019-03-01T01:31:03.130Z,97937.36
2019-03-01T01:32:11.118Z,97933.03
2019-03-01T01:33:19.213Z,97931.22
2019-03-01T01:34:27.167Z,97929.76
2019-03-01T01:35:35.554Z,97934.09
2019-03-01T01:36:43.543Z,97930.45
2019-03-01T01:37:51.573Z,97935.27
2019-03-01T01:38:59.524Z,97934.32
2019-03-01T01:40:10.872Z,97935.65
2019-03-01T01:41:18.973Z,97933.00
2019-03-01T01:42:27.019Z,97938.65
2019-03-01T01:43:35.113Z,97939.97
2019-03-01T01:44:43.082Z,97941.30
2019-03-01T01:45:51.763Z,97942.14
2019-03-01T01:46:59.966Z,97935.16
2019-03-01T01:48:08.152Z,97937.32
2019-03-01T01:49:16.289Z,97945.13
2019-03-01T01:50:25.002Z,97945.27
2019-03-01T01:51:33.079Z,97942.38
2019-03-01T01:52:40.950Z,97949.77
2019-03-01T01:53:49.196Z,97943.78
2019-03-01T01:54:57.625Z,97937.26
2019-03-01T01:56:05.719Z,97938.72
2019-03-01T01:57:13.743Z,97941.37
2019-03-01T01:58:22.095Z,97944.16
2019-03-01T01:59:30.267Z,97944.65
2019-03-01T02:00:39.149Z,97940.46
2019-03-01T02:01:47.414Z,97943.70
2019-03-01T02:02:55.794Z,97943.36
2019-03-01T02:04:04.082Z,97942.66
2019-03-01T02:05:12.235Z,97940.25
2019-03-01T02:06:20.458Z,97941.72
2019-03-01T02:07:28.811Z,97943.17
2019-03-01T02:08:37.220Z,97932.23
2019-03-01T02:09:45.237Z,97931.05
2019-03-01T02:10:54.248Z,97932.97
2019-03-01T02:12:03.036Z,97936.94
2019-03-01T02:13:11.105Z,97932.89
2019-03-01T02:14:19.419Z,97936.52
2019-03-01T02:15:27.951Z,97937.24
2019-03-01T02:16:36.061Z,97933.19
2019-03-01T02:17:44.437Z,97936.92
2019-03-01T02:18:57.836Z,97927.30
2019-03-01T02:20:02.373Z,97930.92
2019-03-01T02:21:10.538Z,97928.55
2019-03-01T02:22:18.494Z,97926.84
2019-03-01T02:23:26.490Z,97930.81
2019-03-01T02:24:35.198Z,97931.78
2019-03-01T02:25:44.786Z,97933.59
2019-03-01T02:26:55.694Z,97937.22
2019-03-01T02:28:03.655Z,97933.38
2019-03-01T02:29:11.791Z,97930.38
2019-03-01T02:30:24.724Z,97935.19
2019-03-01T02:31:33.223Z,97931.36
2019-03-01T02:32:44.409Z,97926.55
2019-03-01T02:33:52.676Z,97934.95
2019-03-01T02:35:00.764Z,97928.95
2019-03-01T02:36:09.028Z,97930.76
2019-03-01T02:37:16.951Z,97932.92
2019-03-01T02:38:25.458Z,97932.22
2019-03-01T02:39:33.648Z,97929.70
2019-03-01T02:40:41.776Z,97935.37
2019-03-01T02:41:49.853Z,97933.97
2019-03-01T02:42:59.083Z,97936.02
2019-03-01T02:44:07.365Z,97938.69
2019-03-01T02:45:20.667Z,97938.60
2019-03-01T02:46:28.806Z,97937.16
2019-03-01T02:47:36.961Z,97930.56
2019-03-01T02:48:45.152Z,97934.31
2019-03-01T02:49:53.002Z,97937.23
2019-03-01T02:51:01.070Z,97937.95
2019-03-01T02:52:09.085Z,97936.05
2019-03-01T02:53:17.363Z,97935.58
2019-03-01T02:54:25.567Z,97939.43
2019-03-01T02:55:33.533Z,97936.70
2019-03-01T02:56:41.966Z,97939.92
2019-03-01T02:57:50.387Z,97941.03
2019-03-01T02:58:58.545Z,97940.94
2019-03-01T03:00:13.939Z,97946.94
2019-03-01T03:01:21.951Z,97941.56
2019-03-01T03:02:29.868Z,97944.08
2019-03-01T03:03:38.117Z,97941.56
2019-03-01T03:04:46.301Z,97947.44
2019-03-01T03:05:56.113Z,97946.59
2019-03-01T03:07:17.665Z,97953.34
2019-03-01T03:08:25.819Z,97949.50
2019-03-01T03:09:34.148Z,97948.27
2019-03-01T03:10:42.238Z,97950.47
2019-03-01T03:11:50.244Z,97953.56
2019-03-01T03:13:04.097Z,97955.27
2019-03-01T03:14:12.187Z,97950.08
2019-03-01T03:15:34.250Z,97956.34
2019-03-01T03:16:43.292Z,97955.02
2019-03-01T03:17:51.408Z,97956.08
2019-03-01T03:18:59.607Z,97953.92
2019-03-01T03:20:10.727Z,97948.77
2019-03-01T03:21:18.701Z,97953.21
2019-03-01T03:22:27.044Z,97951.53
2019-03-01T03:23:35.484Z,97950.70
2019-03-01T03:24:43.933Z,97951.19
2019-03-01T03:25:52.336Z,97952.25
2019-03-01T03:27:00.231Z,97949.50
2019-03-01T03:28:08.248Z,97948.89
2019-03-01T03:29:16.561Z,97945.67
2019-03-01T03:30:24.571Z,97945.77
2019-03-01T03:31:33.147Z,97954.66
2019-03-01T03:32:41.536Z,97946.98
2019-03-01T03:33:50.036Z,97956.59
2019-03-01T03:34:58.357Z,97952.63
2019-03-01T03:36:06.737Z,97949.27
2019-03-01T03:37:15.252Z,97952.52
2019-03-01T03:38:23.856Z,97950.48
2019-03-01T03:39:31.819Z,97949.74
2019-03-01T03:40:40.204Z,97945.20
2019-03-01T03:41:48.676Z,97955.05
2019-03-01T03:42:56.753Z,97948.80
2019-03-01T03:44:04.927Z,97952.63
2019-03-01T03:45:18.128Z,97952.52
2019-03-01T03:46:26.243Z,97949.98
2019-03-01T03:47:34.460Z,97953.23
2019-03-01T03:48:42.700Z,97952.38
2019-03-01T03:49:50.570Z,97958.00
2019-03-01T03:50:58.580Z,97952.62
2019-03-01T03:52:06.793Z,97955.70
2019-03-01T03:53:14.758Z,97954.51
2019-03-01T03:54:22.894Z,97954.99
2019-03-01T03:55:31.162Z,97951.52
2019-03-01T03:56:39.640Z,97956.56
2019-03-01T03:57:48.253Z,97955.72
2019-03-01T03:58:56.472Z,97956.68
2019-03-01T04:00:06.394Z,97962.05
2019-03-01T04:01:14.703Z,97947.77
2019-03-01T04:02:22.844Z,97954.84
2019-03-01T04:03:31.151Z,97956.89
2019-03-01T04:04:39.346Z,97960.22
2019-03-01T04:05:47.905Z,97962.62
2019-03-01T04:06:56.331Z,97957.08
2019-03-01T04:08:04.785Z,97957.92
2019-03-01T04:09:12.959Z,97956.72
2019-03-01T04:10:21.179Z,97949.77
2019-03-01T04:11:29.427Z,97952.53
2019-03-01T04:12:37.622Z,97957.92
2019-03-01T04:13:45.560Z,97954.45
2019-03-01T04:14:53.645Z,97967.64
2019-03-01T04:16:01.660Z,97956.81
2019-03-01T04:17:09.897Z,97966.17
2019-03-01T04:18:18.457Z,97968.33
2019-03-01T04:19:26.957Z,97974.21
2019-03-01T04:20:35.049Z,97977.69
2019-03-01T04:21:43.676Z,97969.89
2019-03-01T04:22:52.152Z,97969.53
2019-03-01T04:24:00.327Z,97967.47
2019-03-01T04:25:09.018Z,97973.11
2019-03-01T04:26:17.337Z,97971.88
2019-03-01T04:27:25.751Z,97963.00
2019-03-01T04:28:34.239Z,97964.44
2019-03-01T04:29:42.238Z,97968.00
2019-03-01T04:30:50.433Z,97968.25
2019-03-01T04:31:58.750Z,97968.01
2019-03-01T04:33:07.041Z,97968.97
2019-03-01T04:34:15.088Z,97979.13
2019-03-01T04:35:23.236Z,97967.38
2019-03-01T04:36:31.424Z,97968.70
2019-03-01T04:37:39.865Z,97963.78
2019-03-01T04:38:47.945Z,97965.09
2019-03-01T04:39:56.024Z,97969.41
2019-03-01T04:41:04.440Z,97962.94
2019-03-01T04:42:12.480Z,97966.18
2019-03-01T04:43:20.836Z,97960.66
2019-03-01T04:44:29.550Z,97957.63
2019-03-01T04:45:38.053Z,97958.95
2019-03-01T04:46:46.091Z,97965.09
2019-03-01T04:47:54.349Z,97953.32
2019-03-01T04:49:02.921Z,97962.06
2019-03-01T04:50:13.205Z,97963.15
2019-03-01T04:51:21.557Z,97953.55
2019-03-01T04:52:32.540Z,97955.36
2019-03-01T04:53:40.400Z,97958.23
2019-03-01T04:54:49.222Z,97951.28
2019-03-01T04:55:57.315Z,97947.92
2019-03-01T04:57:05.471Z,97952.96
2019-03-01T04:58:13.900Z,97955.95
2019-03-01T04:59:22.000Z,97958.39
2019-03-01T05:00:30.481Z,97955.63
2019-03-01T05:01:38.839Z,97956.83
2019-03-01T05:02:46.988Z,97955.63
2019-03-01T05:03:55.533Z,97958.39
2019-03-01T05:05:03.556Z,97963.39
2019-03-01T05:06:11.699Z,97957.27
2019-03-01T05:07:20.071Z,97962.55
2019-03-01T05:08:28.195Z,97964.23
2019-03-01T05:09:36.659Z,97963.78
2019-03-01T05:10:44.841Z,97964.98
2019-03-01T05:11:53.287Z,97967.61
2019-03-01T05:13:01.528Z,97974.77
2019-03-01T05:14:09.632Z,97970.46
2019-03-01T05:15:23.326Z,97978.01
2019-03-01T05:16:31.650Z,97973.81
2019-03-01T05:17:39.619Z,97977.05
2019-03-01T05:18:47.884Z,97980.05
2019-03-01T05:19:56.063Z,97984.48
2019-03-01T05:21:04.481Z,97983.64
2019-03-01T05:22:12.413Z,97975.02
2019-03-01T05:23:21.091Z,97986.77
2019-03-01T05:24:29.439Z,97986.20
2019-03-01T05:25:37.834Z,97987.95
2019-03-01T05:26:45.954Z,97984.60
2019-03-01T05:27:54.638Z,97982.08
2019-03-01T05:29:03.057Z,97981.25
2019-03-01T05:30:21.073Z,97975.85
2019-03-01T05:31:29.401Z,97982.80
2019-03-01T05:32:37.732Z,97979.69
2019-03-01T05:33:45.986Z,97978.73
2019-03-01T05:34:54.185Z,97982.69
2019-03-01T05:36:02.383Z,97987.39
2019-03-01T05:37:10.600Z,97989.55
2019-03-01T05:38:21.706Z,97985.23
2019-03-01T05:39:28.612Z,97997.47
2019-03-01T05:40:36.776Z,97993.62
2019-03-01T05:41:44.820Z,98001.14
2019-03-01T05:42:53.572Z,97998.98
2019-03-01T05:44:01.670Z,97996.47
2019-03-01T05:45:13.903Z,98001.74
2019-03-01T05:46:22.038Z,97998.38
2019-03-01T05:47:30.770Z,97996.34
2019-03-01T05:48:39.172Z,97997.75
2019-03-01T05:49:47.428Z,98001.34
2019-03-01T05:50:56.443Z,98004.34
2019-03-01T05:52:05.998Z,98004.81
2019-03-01T05:53:14.480Z,98004.81
2019-03-01T05:54:22.871Z,98000.62
2019-03-01T05:55:31.198Z,97999.62
2019-03-01T05:56:39.283Z,98004.66
2019-03-01T05:58:29.120Z,98000.09
2019-03-01T05:59:37.552Z,98001.02
2019-03-01T06:00:46.030Z,98004.01
2019-03-01T06:02:04.872Z,98006.48
2019-03-01T06:03:49.185Z,98003.13
2019-03-01T06:04:59.778Z,98008.39
2019-03-01T06:06:08.976Z,98004.55
2019-03-01T06:07:53.180Z,98002.00
2019-03-01T06:09:23.706Z,98012.10
2019-03-01T06:10:41.937Z,98008.98
2019-03-01T06:12:09.821Z,98015.58
2019-03-01T06:14:06.135Z,98015.94
2019-03-01T06:15:24.637Z,98013.30
2019-03-01T06:16:45.623Z,98013.30
2019-03-01T06:18:20.810Z,98013.55
2019-03-01T06:19:36.366Z,98008.16
2019-03-01T06:21:14.775Z,98012.75
2019-03-01T06:22:38.552Z,98013.00
2019-03-01T06:24:25.977Z,98015.44
2019-03-01T06:26:07.861Z,98017.72
2019-03-01T06:28:01.434Z,98022.79
2019-03-01T06:29:28.765Z,98026.87
2019-03-01T06:30:52.031Z,98019.91
2019-03-01T06:32:31.681Z,98020.23
2019-03-01T06:33:59.427Z,98027.30
2019-03-01T06:35:17.094Z,98018.91
2019-03-01T06:36:35.268Z,98031.73
2019-03-01T06:37:56.293Z,98021.55
2019-03-01T06:39:21.934Z,98023.81
2019-03-01T06:41:16.897Z,98027.06
2019-03-01T06:42:52.484Z,98020.99
2019-03-01T06:44:16.695Z,98031.78
2019-03-01T06:45:51.747Z,98030.23
2019-03-01T06:47:07.411Z,98032.78
2019-03-01T06:48:17.471Z,98034.34
2019-03-01T06:49:27.327Z,98036.38
2019-03-01T06:50:37.071Z,98040.70
2019-03-01T06:51:45.955Z,98032.79
2019-03-01T06:52:54.547Z,98044.66
2019-03-01T06:54:03.003Z,98036.98
2019-03-01T06:55:31.414Z,98037.78
2019-03-01T06:56:39.730Z,98042.09
2019-03-01T06:57:48.190Z,98040.97
2019-03-01T06:58:57.139Z,98045.27
2019-03-01T07:00:09.044Z,98039.63
2019-03-01T07:01:17.602Z,98038.77
2019-03-01T07:02:27.767Z,98039.36
2019-03-01T07:03:36.372Z,98032.64
2019-03-01T07:04:44.801Z,98034.80
2019-03-01T07:06:02.932Z,98034.80
2019-03-01T07:07:03.638Z,98035.36
2019-03-01T07:08:12.085Z,98028.89
2019-03-01T07:09:20.256Z,98032.95
2019-03-01T07:10:28.437Z,98036.91
2019-03-01T07:11:38.368Z,98036.55
2019-03-01T07:12:47.095Z,98034.27
2019-03-01T07:13:56.323Z,98040.38
2019-03-01T07:15:11.410Z,98036.43
2019-03-01T07:16:22.218Z,98035.11
2019-03-01T07:17:31.167Z,98035.00
2019-03-01T07:18:39.249Z,98034.87
2019-03-01T07:19:48.039Z,98030.61
2019-03-01T07:20:56.282Z,98030.77
2019-03-01T07:22:04.567Z,98024.31
2019-03-01T07:23:12.892Z,98023.72
2019-03-01T07:24:21.506Z,98026.15
2019-03-01T07:25:30.065Z,98031.66
2019-03-01T07:26:38.518Z,98027.23
2019-03-01T07:27:46.877Z,98028.46
2019-03-01T07:28:54.826Z,98026.27
2019-03-01T07:30:03.668Z,98019.44
2019-03-01T07:31:12.343Z,98021.48
2019-03-01T07:32:20.772Z,98031.34
2019-03-01T07:33:29.235Z,98025.00
2019-03-01T07:34:37.450Z,98028.27
2019-03-01T07:35:46.394Z,98029.83
2019-03-01T07:36:55.123Z,98028.39
2019-03-01T07:38:03.179Z,98023.27
2019-03-01T07:39:11.687Z,98026.67
2019-03-01T07:40:19.721Z,98022.39
2019-03-01T07:41:28.257Z,98030.55
2019-03-01T07:42:36.273Z,98023.47
2019-03-01T07:43:44.268Z,98033.54
2019-03-01T07:44:52.519Z,98030.55
2019-03-01T07:46:00.673Z,98038.34
2019-03-01T07:47:08.949Z,98025.78
2019-03-01T07:48:17.828Z,98028.41
2019-03-01T07:49:26.334Z,98030.61
2019-03-01T07:50:34.567Z,98026.91
2019-03-01T07:51:43.202Z,98027.18
2019-03-01T07:52:51.551Z,98026.64
2019-03-01T07:53:59.777Z,98022.58
2019-03-01T07:55:13.471Z,98011.44
2019-03-01T07:56:22.033Z,98011.78
2019-03-01T07:57:31.585Z,98012.76
2019-03-01T07:58:40.050Z,98014.45
2019-03-01T07:59:48.928Z,98013.51
2019-03-01T08:01:00.815Z,98013.17
2019-03-01T08:02:09.050Z,98018.78
2019-03-01T08:03:17.573Z,98012.32
2019-03-01T08:04:28.976Z,98015.09
2019-03-01T08:05:39.550Z,98000.31
2019-03-01T08:06:48.842Z,98011.23
2019-03-01T08:07:56.616Z,98010.54
2019-03-01T08:09:12.560Z,98004.87
2019-03-01T08:10:22.558Z,97996.47
2019-03-01T08:11:31.814Z,97996.12
2019-03-01T08:12:42.394Z,97999.34
2019-03-01T08:13:53.156Z,98000.80
2019-03-01T08:15:04.112Z,98001.16
2019-03-01T08:16:10.233Z,98003.22
2019-03-01T08:17:18.301Z,98003.22
2019-03-01T08:18:26.672Z,98001.51
2019-03-01T08:19:35.141Z,98004.05
2019-03-01T08:20:43.645Z,98006.34
2019-03-01T08:21:52.714Z,98004.64
2019-03-01T08:23:00.963Z,98008.73
2019-03-01T08:24:11.099Z,98008.73
2019-03-01T08:25:23.596Z,98006.47
2019-03-01T08:26:30.814Z,98000.09
2019-03-01T08:27:42.062Z,98003.22
2019-03-01T08:28:49.491Z,98007.18
2019-03-01T08:29:57.437Z,97999.13
2019-03-01T08:31:05.786Z,98000.92
2019-03-01T08:32:14.683Z,98004.89
2019-03-01T08:33:22.821Z,98001.19
2019-03-01T08:34:31.549Z,97999.61
2019-03-01T08:35:40.454Z,97994.06
2019-03-01T08:36:48.880Z,98006.44
2019-03-01T08:37:57.308Z,98008.11
2019-03-01T08:39:08.482Z,98007.28
2019-03-01T08:40:21.045Z,98003.09
2019-03-01T08:41:29.432Z,98012.56
2019-03-01T08:42:37.734Z,98002.95
2019-03-01T08:43:48.181Z,98002.95
2019-03-01T08:44:58.147Z,98001.64
2019-03-01T08:46:09.389Z,98003.70
2019-03-01T08:47:23.459Z,98002.25
2019-03-01T08:48:30.544Z,98007.53
2019-03-01T08:49:37.635Z,98008.73
2019-03-01T08:50:46.194Z,97997.09
2019-03-01T08:51:54.289Z,97994.77
2019-03-01T08:53:02.559Z,98002.34
2019-03-01T08:54:10.752Z,97999.82
2019-03-01T08:55:27.654Z,97996.23
2019-03-01T08:56:35.973Z,97991.30
2019-03-01T08:57:44.749Z,98000.45
2019-03-01T08:58:53.301Z,97994.67
2019-03-01T09:00:02.436Z,97994.89
2019-03-01T09:01:14.865Z,97995.50
2019-03-01T09:02:23.222Z,98002.23
2019-03-01T09:03:50.635Z,98001.62
2019-03-01T09:04:58.945Z,97998.40
2019-03-01T09:06:07.366Z,97997.66
2019-03-01T09:07:15.593Z,97995.98
2019-03-01T09:08:23.767Z,97993.95
2019-03-01T09:09:32.016Z,97992.98
2019-03-01T09:10:40.707Z,97995.64
2019-03-01T09:11:49.284Z,97991.78
2019-03-01T09:12:57.478Z,97995.03
2019-03-01T09:14:06.302Z,97993.82
2019-03-01T09:15:16.206Z,97993.47
2019-03-01T09:16:24.497Z,97994.92
2019-03-01T09:17:32.951Z,97995.02
2019-03-01T09:18:41.547Z,97988.06
2019-03-01T09:19:50.155Z,97984.80
2019-03-01T09:21:04.384Z,97992.48
2019-03-01T09:22:10.267Z,97990.00
2019-03-01T09:23:24.208Z,97988.06
2019-03-01T09:24:29.206Z,97981.70
2019-03-01T09:25:41.411Z,97982.77
2019-03-01T09:26:51.704Z,97984.22
2019-03-01T09:27:58.321Z,97983.34
2019-03-01T09:29:06.713Z,97976.86
2019-03-01T09:30:22.065Z,97981.53
2019-03-01T09:31:30.783Z,97983.34
2019-03-01T09:32:39.115Z,97974.91
2019-03-01T09:33:47.193Z,97973.45
2019-03-01T09:34:56.804Z,97974.27
2019-03-01T09:36:09.728Z,97976.16
2019-03-01T09:37:18.260Z,97973.01
2019-03-01T09:38:26.734Z,97969.11
2019-03-01T09:39:34.825Z,97969.17
2019-03-01T09:40:43.081Z,97968.42
2019-03-01T09:41:51.258Z,97966.67
2019-03-01T09:43:01.031Z,97967.95
2019-03-01T09:44:09.738Z,97963.53
2019-03-01T09:45:19.351Z,97967.83
2019-03-01T09:46:28.317Z,97959.70
2019-03-01T09:47:36.901Z,97959.40
2019-03-01T09:48:49.428Z,97961.97
2019-03-01T09:49:56.544Z,97958.66
2019-03-01T09:51:07.307Z,97959.66
2019-03-01T09:52:16.399Z,97959.83
2019-03-01T09:53:25.017Z,97949.27
2019-03-01T09:54:33.170Z,97953.16
2019-03-01T09:55:41.815Z,97957.84
2019-03-01T09:56:50.708Z,97955.72
2019-03-01T09:57:58.917Z,97950.16
2019-03-01T09:59:07.321Z,97941.22
2019-03-01T10:00:25.647Z,97952.17
2019-03-01T10:01:34.152Z,97954.16
2019-03-01T10:02:42.656Z,97947.66
2019-03-01T10:03:51.875Z,97944.50
2019-03-01T10:05:00.238Z,97942.31
2019-03-01T10:06:08.340Z,97938.60
2019-03-01T10:07:16.689Z,97933.30
2019-03-01T10:08:25.103Z,97940.17
2019-03-01T10:09:33.023Z,97938.28
2019-03-01T10:10:41.119Z,97936.68
2019-03-01T10:11:49.691Z,97937.55
2019-03-01T10:12:57.799Z,97935.95
2019-03-01T10:14:05.805Z,97934.67
2019-03-01T10:15:14.751Z,97925.78
2019-03-01T10:16:23.043Z,97925.58
2019-03-01T10:17:31.530Z,97923.17
2019-03-01T10:18:39.591Z,97920.28
2019-03-01T10:19:48.544Z,97922.02
2019-03-01T10:20:56.869Z,97918.70
2019-03-01T10:22:05.167Z,97921.89
2019-03-01T10:23:13.344Z,97923.59
2019-03-01T10:24:21.985Z,97921.70
2019-03-01T10:25:30.454Z,97921.03
2019-03-01T10:26:39.150Z,97913.14
2019-03-01T10:27:47.404Z,97912.45
2019-03-01T10:28:55.642Z,97914.13
2019-03-01T10:30:05.060Z,97912.45
2019-03-01T10:31:13.482Z,97912.45
2019-03-01T10:32:21.627Z,97902.50
2019-03-01T10:33:29.784Z,97909.70
2019-03-01T10:34:37.845Z,97906.89
2019-03-01T10:35:46.306Z,97901.23
2019-03-01T10:36:55.092Z,97909.34
2019-03-01T10:38:03.441Z,97905.59
2019-03-01T10:39:14.371Z,97899.09
2019-03-01T10:40:24.992Z,97906.91
2019-03-01T10:41:33.548Z,97903.98
2019-03-01T10:42:41.712Z,97897.34
2019-03-01T10:43:50.651Z,97891.95
2019-03-01T10:44:58.591Z,97895.56
2019-03-01T10:46:06.687Z,97898.66
2019-03-01T10:47:14.767Z,97892.28
2019-03-01T10:48:23.211Z,97886.06
2019-03-01T10:49:31.673Z,97886.21
2019-03-01T10:50:40.230Z,97886.48
2019-03-01T10:51:48.352Z,97886.79
2019-03-01T10:52:56.926Z,97883.14
2019-03-01T10:54:05.274Z,97882.80
2019-03-01T10:55:19.576Z,97880.30
2019-03-01T10:56:27.772Z,97876.80
2019-03-01T10:57:36.114Z,97881.13
2019-03-01T10:58:44.530Z,97879.31
2019-03-01T10:59:52.633Z,97873.16
2019-03-01T11:01:01.129Z,97875.47
2019-03-01T11:02:09.641Z,97875.59
2019-03-01T11:03:17.815Z,97867.28
2019-03-01T11:04:26.203Z,97869.45
2019-03-01T11:05:35.003Z,97876.34
2019-03-01T11:06:43.290Z,97872.27
2019-03-01T11:07:54.727Z,97876.89
2019-03-01T11:09:04.933Z,97867.00
2019-03-01T11:10:23.011Z,97862.42
2019-03-01T11:11:31.397Z,97866.66
2019-03-01T11:12:39.665Z,97866.05
2019-03-01T11:13:48.010Z,97868.09
2019-03-01T11:14:56.434Z,97861.78
2019-03-01T11:16:04.622Z,97873.93
2019-03-01T11:17:12.818Z,97871.27
2019-03-01T11:18:21.450Z,97872.32
2019-03-01T11:19:29.699Z,97869.02
2019-03-01T11:20:38.336Z,97858.38
2019-03-01T11:21:46.997Z,97863.13
2019-03-01T11:22:55.177Z,97858.13
2019-03-01T11:24:03.254Z,97860.23
2019-03-01T11:25:14.967Z,97858.69
2019-03-01T11:26:23.189Z,97861.22
2019-03-01T11:27:31.780Z,97861.84
2019-03-01T11:28:40.212Z,97859.95
2019-03-01T11:29:48.341Z,97859.11
2019-03-01T11:30:56.590Z,97859.80
2019-03-01T11:32:04.947Z,97862.52
2019-03-01T11:33:13.121Z,97856.06
2019-03-01T11:34:22.265Z,97856.89
2019-03-01T11:35:31.149Z,97848.82
2019-03-01T11:36:39.725Z,97846.88
2019-03-01T11:37:48.264Z,97857.96
2019-03-01T11:38:56.782Z,97859.37
2019-03-01T11:40:07.603Z,97860.60
2019-03-01T11:41:15.628Z,97859.63
2019-03-01T11:42:24.471Z,97865.13
2019-03-01T11:43:32.553Z,97864.67
2019-03-01T11:44:41.179Z,97855.95
2019-03-01T11:45:49.312Z,97855.23
2019-03-01T11:46:57.676Z,97857.84
2019-03-01T11:48:06.613Z,97858.48
2019-03-01T11:49:14.794Z,97864.48
2019-03-01T11:50:25.086Z,97856.02
2019-03-01T11:51:33.552Z,97860.54
2019-03-01T11:52:42.048Z,97858.95
2019-03-01T11:53:50.351Z,97860.81
2019-03-01T11:54:58.466Z,97857.55
2019-03-01T11:56:07.060Z,97852.27
2019-03-01T11:57:15.247Z,97851.66
2019-03-01T11:58:23.929Z,97849.88
2019-03-01T11:59:32.539Z,97848.47
2019-03-01T12:00:40.917Z,97852.64
2019-03-01T12:01:49.282Z,97846.22
2019-03-01T12:02:57.364Z,97844.05
2019-03-01T12:04:05.526Z,97839.85
2019-03-01T12:05:14.646Z,97842.59
2019-03-01T12:06:22.759Z,97830.26
2019-03-01T12:07:31.428Z,97834.73
2019-03-01T12:08:40.063Z,97836.59
2019-03-01T12:09:48.620Z,97835.34
2019-03-01T12:10:56.934Z,97831.39
2019-03-01T12:12:05.535Z,97822.80
2019-03-01T12:13:13.729Z,97833.06
2019-03-01T12:14:22.426Z,97835.38
2019-03-01T12:15:31.423Z,97833.52
2019-03-01T12:16:40.189Z,97833.45
2019-03-01T12:17:48.585Z,97831.44
2019-03-01T12:18:56.677Z,97836.41
2019-03-01T12:20:06.716Z,97827.11
2019-03-01T12:21:15.395Z,97830.94
2019-03-01T12:22:23.723Z,97826.13
2019-03-01T12:23:31.974Z,97826.95
2019-03-01T12:24:40.238Z,97835.27
2019-03-01T12:25:48.366Z,97835.76
2019-03-01T12:26:56.714Z,97837.27
2019-03-01T12:28:05.303Z,97834.84
2019-03-01T12:29:13.477Z,97836.85
2019-03-01T12:30:26.725Z,97833.70
2019-03-01T12:31:35.259Z,97838.03
2019-03-01T12:32:43.631Z,97833.02
2019-03-01T12:33:52.163Z,97827.02
2019-03-01T12:35:00.295Z,97829.68
2019-03-01T12:36:08.932Z,97830.36
2019-03-01T12:37:16.920Z,97829.03
2019-03-01T12:38:24.880Z,97824.37
2019-03-01T12:39:32.832Z,97834.13
2019-03-01T12:40:42.000Z,97827.64
2019-03-01T12:41:50.147Z,97825.70
2019-03-01T12:42:58.405Z,97822.39
2019-03-01T12:44:06.916Z,97818.59
2019-03-01T12:45:17.349Z,97824.13
2019-03-01T12:46:25.734Z,97826.79
2019-03-01T12:47:33.958Z,97827.21
2019-03-01T12:48:42.025Z,97825.32
2019-03-01T12:49:50.512Z,97824.98
2019-03-01T12:50:58.508Z,97828.63
2019-03-01T12:52:06.395Z,97820.80
2019-03-01T12:53:14.494Z,97820.73
2019-03-01T12:54:22.482Z,97816.22
2019-03-01T12:55:31.931Z,97824.95
2019-03-01T12:56:40.401Z,97822.90
2019-03-01T12:57:49.010Z,97821.99
2019-03-01T12:58:57.182Z,97818.58
2019-03-01T13:00:23.706Z,97834.81
2019-03-01T13:01:32.139Z,97827.76
2019-03-01T13:02:40.381Z,97830.33
2019-03-01T13:03:48.811Z,97828.96
2019-03-01T13:04:57.119Z,97825.55
2019-03-01T13:06:05.299Z,97829.59
2019-03-01T13:07:14.034Z,97833.64
2019-03-01T13:08:22.371Z,97824.80
2019-03-01T13:09:30.836Z,97828.35
2019-03-01T13:10:40.232Z,97829.41
2019-03-01T13:11:51.326Z,97818.16
2019-03-01T13:13:02.079Z,97828.30
2019-03-01T13:14:09.409Z,97829.77
2019-03-01T13:15:17.498Z,97826.05
2019-03-01T13:16:26.554Z,97819.56
2019-03-01T13:17:37.244Z,97823.83
2019-03-01T13:18:47.684Z,97821.44
2019-03-01T13:19:57.517Z,97833.81
2019-03-01T13:21:05.664Z,97825.27
2019-03-01T13:22:13.932Z,97826.02
2019-03-01T13:23:22.030Z,97828.23
2019-03-01T13:24:30.538Z,97825.16
2019-03-01T13:25:38.663Z,97821.47
2019-03-01T13:26:46.997Z,97822.20
2019-03-01T13:27:55.010Z,97818.86
2019-03-01T13:29:03.244Z,97820.82
2019-03-01T13:30:17.905Z,97819.75
2019-03-01T13:31:26.104Z,97818.57
2019-03-01T13:32:34.378Z,97814.50
2019-03-01T13:33:43.090Z,97818.48
2019-03-01T13:34:51.520Z,97813.46
2019-03-01T13:36:03.149Z,97812.63
2019-03-01T13:37:15.174Z,97811.79
2019-03-01T13:38:19.935Z,97812.13
2019-03-01T13:39:28.280Z,97809.14
2019-03-01T13:40:36.461Z,97805.86
2019-03-01T13:41:45.079Z,97811.84
2019-03-01T13:42:53.583Z,97814.88
2019-03-01T13:44:04.120Z,97812.44
2019-03-01T13:45:15.765Z,97817.94
2019-03-01T13:46:26.385Z,97824.56
2019-03-01T13:47:33.858Z,97814.31
2019-03-01T13:48:42.061Z,97823.81
2019-03-01T13:49:50.192Z,97824.16
2019-03-01T13:50:58.512Z,97821.52
2019-03-01T13:52:06.749Z,97821.52
2019-03-01T13:53:15.436Z,97820.67
2019-03-01T13:54:23.587Z,97815.03